X  Lukk Metar værinformasjon om luftfart        KSPW Spencer, IA
Temperatur
74°F Temperatur
52°F Duggpunkt
46% Luftfuktighet



Vind
9 MPT
15 KM/T
4 M/S
8 KNP



310°
NV
Nåværende forhold

Sunny Solfylt
Trykk 1010 (hPa) - 29.83 (inHg)
Sikt 10 (mil) - 16 (km)
Flyplass
Flyplass-kode KSPW

Plassering: Spencer, IA
Avstand: 12 (mi)

Metar:
METAR KSPW 181653Z AUTO 31008KT 10SM CLR 23/11 A2985 RMK AO2 SLP103 T02330111

Tid: 05-18-2022 11:53 am CDT